createdAt,value
2022-07-27T00:01:19.699Z,61.98
2022-07-27T00:03:49.841Z,61.72
2022-07-27T00:06:19.437Z,61.94
2022-07-27T00:08:49.591Z,62.04
2022-07-27T00:11:19.382Z,61.69
2022-07-27T00:13:49.180Z,61.47
2022-07-27T00:16:19.089Z,61.33
2022-07-27T00:18:48.977Z,61.78
2022-07-27T00:21:19.077Z,62.01
2022-07-27T00:23:49.233Z,62.22
2022-07-27T00:26:19.035Z,62.04
2022-07-27T00:28:49.071Z,62.12
2022-07-27T00:31:19.611Z,62.04
2022-07-27T00:33:49.478Z,62.46
2022-07-27T00:36:19.014Z,62.08
2022-07-27T00:38:48.799Z,62.14
2022-07-27T00:41:18.545Z,62.83
2022-07-27T00:43:56.839Z,62.83
2022-07-27T00:46:29.039Z,63.05
2022-07-27T00:48:59.404Z,63.15
2022-07-27T00:51:29.286Z,63.43
2022-07-27T00:53:59.636Z,63.54
2022-07-27T00:56:29.600Z,63.65
2022-07-27T00:58:59.527Z,63.64
2022-07-27T01:01:29.061Z,63.79
2022-07-27T01:03:59.156Z,64.33
2022-07-27T01:06:30.197Z,64.33
2022-07-27T01:09:19.645Z,64.14
2022-07-27T01:11:50.066Z,64.14
2022-07-27T01:14:20.467Z,64.60
2022-07-27T01:16:52.229Z,64.65
2022-07-27T01:19:22.295Z,64.96
2022-07-27T01:21:52.360Z,64.96
2022-07-27T01:24:22.228Z,64.79
2022-07-27T01:26:52.475Z,65.01
2022-07-27T01:29:22.404Z,65.33
2022-07-27T01:31:52.231Z,65.33
2022-07-27T01:34:22.544Z,65.51
2022-07-27T01:36:52.490Z,65.91
2022-07-27T01:39:22.365Z,65.70
2022-07-27T01:41:52.231Z,65.54
2022-07-27T01:44:22.359Z,65.39
2022-07-27T01:46:52.681Z,65.51
2022-07-27T01:49:23.182Z,65.51
2022-07-27T01:51:53.010Z,65.66
2022-07-27T01:54:22.829Z,65.92
2022-07-27T01:56:52.608Z,66.26
2022-07-27T01:59:22.751Z,66.16
2022-07-27T02:01:52.602Z,66.25
2022-07-27T02:04:23.831Z,66.22
2022-07-27T02:06:53.683Z,66.25
2022-07-27T02:09:25.383Z,66.08
2022-07-27T02:12:12.646Z,66.23
2022-07-27T02:14:42.713Z,66.40
2022-07-27T02:17:12.931Z,66.51
2022-07-27T02:19:44.413Z,66.25
2022-07-27T02:22:15.365Z,66.21
2022-07-27T02:24:45.421Z,66.36
2022-07-27T02:27:15.269Z,66.18
2022-07-27T02:29:45.037Z,66.40
2022-07-27T02:32:14.587Z,66.34
2022-07-27T02:34:44.616Z,66.50
2022-07-27T02:37:14.396Z,66.58
2022-07-27T02:39:44.328Z,66.68
2022-07-27T02:42:16.191Z,66.70
2022-07-27T02:44:45.980Z,66.64
2022-07-27T02:47:15.759Z,66.69
2022-07-27T02:49:45.263Z,66.95
2022-07-27T02:52:16.112Z,67.00
2022-07-27T02:54:46.179Z,66.97
2022-07-27T02:57:15.970Z,66.84
2022-07-27T02:59:45.747Z,67.14
2022-07-27T03:02:17.526Z,67.24
2022-07-27T03:04:47.361Z,67.32
2022-07-27T03:07:17.444Z,67.50
2022-07-27T03:09:52.187Z,67.73
2022-07-27T03:12:18.689Z,67.82
2022-07-27T03:14:48.539Z,68.30
2022-07-27T03:17:18.389Z,68.19
2022-07-27T03:19:49.689Z,68.34
2022-07-27T03:22:19.345Z,68.04
2022-07-27T03:24:48.842Z,67.75
2022-07-27T03:27:19.186Z,67.72
2022-07-27T03:29:49.006Z,67.43
2022-07-27T03:32:18.655Z,67.55
2022-07-27T03:34:48.411Z,67.47
2022-07-27T03:37:19.058Z,67.42
2022-07-27T03:39:48.608Z,67.57
2022-07-27T03:42:18.104Z,67.78
2022-07-27T03:44:47.868Z,68.16
2022-07-27T03:47:17.653Z,68.17
2022-07-27T03:49:47.916Z,68.17
2022-07-27T03:52:18.118Z,68.54
2022-07-27T03:54:49.699Z,68.54
2022-07-27T03:57:19.487Z,68.67
2022-07-27T03:59:49.550Z,68.64
2022-07-27T04:02:19.439Z,68.59
2022-07-27T04:04:49.579Z,68.05
2022-07-27T04:07:19.426Z,68.24
2022-07-27T04:09:49.491Z,68.53
2022-07-27T04:12:20.637Z,69.08
2022-07-27T04:14:51.714Z,68.78
2022-07-27T04:17:53.476Z,68.82
2022-07-27T04:19:53.251Z,69.17
2022-07-27T04:22:23.073Z,68.57
2022-07-27T04:24:53.148Z,68.16
2022-07-27T04:27:22.994Z,68.04
2022-07-27T04:29:53.325Z,68.33
2022-07-27T04:32:23.472Z,68.32
2022-07-27T04:34:53.543Z,68.69
2022-07-27T04:37:23.415Z,68.62
2022-07-27T04:39:58.528Z,68.38
2022-07-27T04:42:29.693Z,68.53
2022-07-27T04:44:59.786Z,68.53
2022-07-27T04:47:29.768Z,68.08
2022-07-27T04:49:59.847Z,67.74
2022-07-27T04:52:29.922Z,67.74
2022-07-27T04:55:00.006Z,67.60
2022-07-27T04:57:31.421Z,67.74
2022-07-27T05:00:01.686Z,68.04
2022-07-27T05:02:31.758Z,67.95
2022-07-27T05:05:02.150Z,68.21
2022-07-27T05:07:32.356Z,68.50
2022-07-27T05:10:02.279Z,67.93
2022-07-27T05:12:32.057Z,67.93
2022-07-27T05:15:02.211Z,67.65
2022-07-27T05:17:32.468Z,67.33
2022-07-27T05:20:02.489Z,67.08
2022-07-27T05:22:35.089Z,66.95
2022-07-27T05:25:03.445Z,66.98
2022-07-27T05:27:33.519Z,66.59
2022-07-27T05:30:03.434Z,66.68
2022-07-27T05:32:32.923Z,66.53
2022-07-27T05:35:03.613Z,65.95
2022-07-27T05:37:33.384Z,66.02
2022-07-27T05:40:04.737Z,65.91
2022-07-27T05:42:34.641Z,65.74
2022-07-27T05:45:04.929Z,65.10
2022-07-27T05:47:35.166Z,65.65
2022-07-27T05:50:05.499Z,64.56
2022-07-27T05:52:35.017Z,63.77
2022-07-27T05:55:05.138Z,62.95
2022-07-27T05:57:35.004Z,63.31
2022-07-27T06:00:07.175Z,62.74
2022-07-27T06:02:38.640Z,62.50
2022-07-27T06:05:14.816Z,62.67
2022-07-27T06:07:41.912Z,61.51
2022-07-27T06:10:13.183Z,61.76
2022-07-27T06:12:44.686Z,60.37
2022-07-27T06:15:16.874Z,60.58
2022-07-27T06:17:48.520Z,60.25
2022-07-27T06:20:18.230Z,59.39
2022-07-27T06:22:53.441Z,59.39
2022-07-27T06:25:34.236Z,58.93
2022-07-27T06:27:57.396Z,57.96
2022-07-27T06:30:27.385Z,57.40
2022-07-27T06:32:59.085Z,57.36
2022-07-27T06:35:29.819Z,58.23
2022-07-27T06:38:00.743Z,58.29
2022-07-27T06:40:32.132Z,58.61
2022-07-27T06:43:01.978Z,57.95
2022-07-27T06:45:32.303Z,57.54
2022-07-27T06:48:02.103Z,57.28
2022-07-27T06:50:31.666Z,58.13
2022-07-27T06:53:01.434Z,58.35
2022-07-27T06:55:31.308Z,56.48
2022-07-27T06:58:01.080Z,57.29
2022-07-27T07:00:30.861Z,54.69
2022-07-27T07:03:06.087Z,54.69
2022-07-27T07:05:38.948Z,54.47
2022-07-27T07:08:10.309Z,54.00
2022-07-27T07:10:42.874Z,53.14
2022-07-27T07:13:12.922Z,53.46
2022-07-27T07:15:43.930Z,52.90
2022-07-27T07:18:15.267Z,51.75
2022-07-27T07:20:45.071Z,51.41
2022-07-27T07:23:14.885Z,52.88
2022-07-27T07:25:44.723Z,51.94
2022-07-27T07:28:15.302Z,51.64
2022-07-27T07:30:45.137Z,50.01
2022-07-27T07:33:14.901Z,49.23
2022-07-27T07:36:12.106Z,48.20
2022-07-27T07:38:16.015Z,47.14
2022-07-27T07:40:45.840Z,47.62
2022-07-27T07:43:15.862Z,47.03
2022-07-27T07:45:50.641Z,46.60
2022-07-27T07:48:16.960Z,46.22
2022-07-27T07:50:46.796Z,46.91
2022-07-27T07:53:18.329Z,47.74
2022-07-27T07:55:48.168Z,47.39
2022-07-27T07:58:18.402Z,47.22
2022-07-27T08:00:48.301Z,45.06
2022-07-27T08:03:18.311Z,43.87
2022-07-27T08:05:48.036Z,43.33
2022-07-27T08:08:17.891Z,43.53
2022-07-27T08:10:47.928Z,43.01
2022-07-27T08:13:21.974Z,43.92
2022-07-27T08:15:49.681Z,43.16
2022-07-27T08:18:19.164Z,43.03
2022-07-27T08:20:49.324Z,43.14
2022-07-27T08:23:19.111Z,42.54
2022-07-27T08:25:48.966Z,43.25
2022-07-27T08:28:18.446Z,43.50
2022-07-27T08:30:49.378Z,43.83
2022-07-27T08:33:19.661Z,43.50
2022-07-27T08:35:49.711Z,42.91
2022-07-27T08:38:19.474Z,43.04
2022-07-27T08:40:49.974Z,43.86
2022-07-27T08:43:25.338Z,45.65
2022-07-27T08:46:01.279Z,45.74
2022-07-27T08:48:32.152Z,45.74
2022-07-27T08:51:02.073Z,43.99
2022-07-27T08:53:52.647Z,42.54
2022-07-27T08:56:07.198Z,41.87
2022-07-27T08:58:36.967Z,43.37
2022-07-27T09:01:06.723Z,41.87
2022-07-27T09:03:36.699Z,41.98
2022-07-27T09:06:06.797Z,41.16
2022-07-27T09:08:37.900Z,39.12
2022-07-27T09:11:15.608Z,39.01
2022-07-27T09:13:45.443Z,38.42
2022-07-27T09:16:20.017Z,36.02
2022-07-27T09:18:46.497Z,37.14
2022-07-27T09:21:24.238Z,37.35
2022-07-27T09:24:02.501Z,39.11
2022-07-27T09:26:34.216Z,37.50
2022-07-27T09:29:15.637Z,38.18
2022-07-27T09:31:48.073Z,37.98
2022-07-27T09:34:35.160Z,37.95
2022-07-27T09:37:06.380Z,38.19
2022-07-27T09:39:36.204Z,37.59
2022-07-27T09:42:08.392Z,37.21
2022-07-27T09:44:43.452Z,38.40
2022-07-27T09:47:25.474Z,36.49
2022-07-27T09:49:57.842Z,37.24
2022-07-27T09:52:32.156Z,36.17
2022-07-27T09:55:07.020Z,35.93
2022-07-27T09:57:53.593Z,33.84
2022-07-27T10:00:24.328Z,34.39
2022-07-27T10:02:55.447Z,34.57
2022-07-27T10:05:25.525Z,35.91
2022-07-27T10:07:56.219Z,35.99
2022-07-27T10:10:26.144Z,35.20
2022-07-27T10:12:55.961Z,35.26
2022-07-27T10:15:26.113Z,33.81
2022-07-27T10:17:59.183Z,33.84
2022-07-27T10:20:30.560Z,33.73
2022-07-27T10:23:00.602Z,34.08
2022-07-27T10:25:37.552Z,33.62
2022-07-27T10:28:12.039Z,33.88
2022-07-27T10:30:41.983Z,33.47
2022-07-27T10:33:33.122Z,32.06
2022-07-27T10:36:04.169Z,30.95
2022-07-27T10:38:47.878Z,29.66
2022-07-27T10:41:29.174Z,30.44
2022-07-27T10:44:20.883Z,32.71
2022-07-27T10:46:56.777Z,32.43
2022-07-27T10:49:29.704Z,31.13
2022-07-27T10:52:00.982Z,31.03
2022-07-27T10:54:39.764Z,31.73
2022-07-27T10:57:10.225Z,30.84
2022-07-27T11:02:18.655Z,30.08
2022-07-27T11:04:54.774Z,29.73
2022-07-27T11:07:32.035Z,29.91
2022-07-27T11:10:05.101Z,28.60
2022-07-27T11:12:30.490Z,29.47
2022-07-27T11:15:01.968Z,28.02
2022-07-27T11:20:04.511Z,29.61
2022-07-27T11:25:09.770Z,32.83
2022-07-27T11:27:50.101Z,32.25
2022-07-27T11:30:27.891Z,33.31
2022-07-27T11:32:57.911Z,34.50
2022-07-27T11:35:27.441Z,34.23
2022-07-27T11:38:05.682Z,34.54
2022-07-27T11:40:59.961Z,34.54
2022-07-27T11:43:37.540Z,33.85
2022-07-27T11:46:17.603Z,34.32
2022-07-27T11:49:09.469Z,35.22
2022-07-27T11:51:25.330Z,34.52
2022-07-27T11:54:02.861Z,32.33
2022-07-27T11:56:35.331Z,30.49
2022-07-27T11:59:08.731Z,29.21
2022-07-27T12:01:44.048Z,30.13
2022-07-27T12:04:18.621Z,29.12
2022-07-27T12:06:51.761Z,28.87
2022-07-27T12:09:22.739Z,28.25
2022-07-27T12:12:01.302Z,27.92
2022-07-27T12:14:36.933Z,27.68
2022-07-27T12:17:29.417Z,28.36
2022-07-27T12:20:05.044Z,27.72
2022-07-27T12:22:51.925Z,28.14
2022-07-27T12:25:32.157Z,28.56
2022-07-27T12:28:14.010Z,29.21
2022-07-27T12:30:48.743Z,30.04
2022-07-27T12:33:34.592Z,29.22
2022-07-27T12:36:09.076Z,29.62
2022-07-27T12:38:44.361Z,30.05
2022-07-27T12:41:25.795Z,30.44
2022-07-27T12:44:16.674Z,30.77
2022-07-27T12:47:02.980Z,29.75
2022-07-27T12:49:35.693Z,29.21
2022-07-27T12:52:09.484Z,29.15
2022-07-27T12:54:40.028Z,28.92
2022-07-27T12:57:09.809Z,27.27
2022-07-27T12:59:40.224Z,26.44
2022-07-27T13:02:10.481Z,25.49
2022-07-27T13:04:39.998Z,27.34
2022-07-27T13:07:09.842Z,27.34
2022-07-27T13:10:03.288Z,27.17
2022-07-27T13:12:11.563Z,26.85
2022-07-27T13:14:43.375Z,26.34
2022-07-27T13:17:12.864Z,26.29
2022-07-27T13:19:42.610Z,26.77
2022-07-27T13:22:12.374Z,27.18
2022-07-27T13:24:41.965Z,26.77
2022-07-27T13:27:11.802Z,26.43
2022-07-27T13:29:41.644Z,26.43
2022-07-27T13:32:11.490Z,26.91
2022-07-27T13:34:41.254Z,27.58
2022-07-27T13:37:11.014Z,27.08
2022-07-27T13:39:40.774Z,26.73
2022-07-27T13:42:10.928Z,27.00
2022-07-27T13:45:02.487Z,27.42
2022-07-27T13:47:12.238Z,27.74
2022-07-27T13:49:42.060Z,28.53
2022-07-27T13:52:14.201Z,28.90
2022-07-27T13:54:43.962Z,28.81
2022-07-27T13:57:13.802Z,28.46
2022-07-27T13:59:43.570Z,28.79
2022-07-27T14:02:13.280Z,29.90
2022-07-27T14:04:45.697Z,29.69
2022-07-27T14:07:15.883Z,28.92
2022-07-27T14:10:04.155Z,28.39
2022-07-27T14:12:33.921Z,28.54
2022-07-27T14:15:03.697Z,30.73
2022-07-27T14:17:33.238Z,30.64
2022-07-27T14:20:03.133Z,30.46
2022-07-27T14:22:32.971Z,30.46
2022-07-27T14:25:02.727Z,30.14
2022-07-27T14:27:36.086Z,30.56
2022-07-27T14:30:08.046Z,30.41
2022-07-27T14:32:38.069Z,30.41
2022-07-27T14:35:08.291Z,30.15
2022-07-27T14:37:38.115Z,30.30
2022-07-27T14:40:10.320Z,30.33
2022-07-27T14:42:40.150Z,30.49
2022-07-27T14:45:10.329Z,29.86
2022-07-27T14:47:40.165Z,29.61
2022-07-27T14:50:10.436Z,29.70
2022-07-27T14:52:40.203Z,29.77
2022-07-27T14:55:10.390Z,30.02
2022-07-27T14:57:40.312Z,30.44
2022-07-27T15:00:10.946Z,30.88
2022-07-27T15:02:42.166Z,30.38
2022-07-27T15:05:12.816Z,30.15
2022-07-27T15:07:43.775Z,29.11
2022-07-27T15:10:14.788Z,27.89
2022-07-27T15:12:44.325Z,28.59
2022-07-27T15:15:14.119Z,29.41
2022-07-27T15:17:45.090Z,29.09
2022-07-27T15:20:16.324Z,27.85
2022-07-27T15:22:46.104Z,29.41
2022-07-27T15:25:16.155Z,28.31
2022-07-27T15:27:45.900Z,28.75
2022-07-27T15:30:17.149Z,28.75
2022-07-27T15:32:46.911Z,29.32
2022-07-27T15:35:16.670Z,28.65
2022-07-27T15:37:54.470Z,28.91
2022-07-27T15:40:35.457Z,29.05
2022-07-27T15:43:11.904Z,28.74
2022-07-27T15:45:43.303Z,29.04
2022-07-27T15:48:13.687Z,29.34
2022-07-27T15:50:48.140Z,29.64
2022-07-27T15:53:18.902Z,29.42
2022-07-27T15:55:49.538Z,30.34
2022-07-27T15:58:19.566Z,30.77
2022-07-27T16:00:52.169Z,31.01
2022-07-27T16:03:22.998Z,30.94
2022-07-27T16:05:54.956Z,30.78
2022-07-27T16:08:26.223Z,32.01
2022-07-27T16:10:55.737Z,32.98
2022-07-27T16:13:26.305Z,34.02
2022-07-27T16:16:13.967Z,34.02
2022-07-27T16:18:43.814Z,34.63
2022-07-27T16:21:13.634Z,35.04
2022-07-27T16:23:43.470Z,35.51
2022-07-27T16:26:13.457Z,35.34
2022-07-27T16:28:46.551Z,35.54
2022-07-27T16:31:19.533Z,36.17
2022-07-27T16:33:54.870Z,36.54
2022-07-27T16:36:24.109Z,36.71
2022-07-27T16:38:55.125Z,36.71
2022-07-27T16:41:25.147Z,36.71
2022-07-27T16:43:54.962Z,36.85
2022-07-27T16:46:24.770Z,36.34
2022-07-27T16:48:54.594Z,36.33
2022-07-27T16:51:24.497Z,36.23
2022-07-27T16:53:54.277Z,36.25
2022-07-27T16:56:24.244Z,37.03
2022-07-27T16:58:54.010Z,36.58
2022-07-27T17:01:26.794Z,36.69
2022-07-27T17:03:57.015Z,36.29
2022-07-27T17:06:28.665Z,36.68
2022-07-27T17:08:58.754Z,36.56
2022-07-27T17:11:28.506Z,36.55
2022-07-27T17:13:59.576Z,36.01
2022-07-27T17:16:29.982Z,35.99
2022-07-27T17:18:59.767Z,35.84
2022-07-27T17:21:29.534Z,36.32
2022-07-27T17:23:59.307Z,36.59
2022-07-27T17:26:29.070Z,36.33
2022-07-27T17:28:58.971Z,36.00
2022-07-27T17:31:28.862Z,35.91
2022-07-27T17:33:59.004Z,36.37
2022-07-27T17:36:28.776Z,36.42
2022-07-27T17:38:58.342Z,36.51
2022-07-27T17:41:28.102Z,36.29
2022-07-27T17:43:57.875Z,36.18
2022-07-27T17:46:27.756Z,36.18
2022-07-27T17:48:57.594Z,36.87
2022-07-27T17:51:27.462Z,36.54
2022-07-27T17:53:57.232Z,36.54
2022-07-27T17:56:26.985Z,36.46
2022-07-27T17:59:04.982Z,36.56
2022-07-27T18:01:46.491Z,36.76
2022-07-27T18:03:59.941Z,37.19
2022-07-27T18:06:30.159Z,37.43
2022-07-27T18:08:59.914Z,37.50
2022-07-27T18:11:29.966Z,36.95
2022-07-27T18:13:59.903Z,36.95
2022-07-27T18:16:29.717Z,36.85
2022-07-27T18:19:00.890Z,37.74
2022-07-27T18:21:30.823Z,37.70
2022-07-27T18:24:00.833Z,38.00
2022-07-27T18:26:30.958Z,38.52
2022-07-27T18:29:00.725Z,38.97
2022-07-27T18:31:30.576Z,39.51
2022-07-27T18:34:00.419Z,39.09
2022-07-27T18:36:30.183Z,39.64
2022-07-27T18:38:59.976Z,39.92
2022-07-27T18:41:29.741Z,39.79
2022-07-27T18:43:59.502Z,40.08
2022-07-27T18:46:29.508Z,40.06
2022-07-27T18:48:59.651Z,39.75
2022-07-27T18:51:30.383Z,39.44
2022-07-27T18:54:00.310Z,40.00
2022-07-27T18:56:30.098Z,39.90
2022-07-27T18:58:59.854Z,39.72
2022-07-27T19:01:29.681Z,39.65
2022-07-27T19:04:00.092Z,40.01
2022-07-27T19:06:31.557Z,40.09
2022-07-27T19:09:01.608Z,40.05
2022-07-27T19:11:32.095Z,40.38
2022-07-27T19:14:01.929Z,40.92
2022-07-27T19:16:33.548Z,40.72
2022-07-27T19:19:03.962Z,41.20
2022-07-27T19:21:34.017Z,41.12
2022-07-27T19:24:05.580Z,41.22
2022-07-27T19:26:38.162Z,41.69
2022-07-27T19:29:09.007Z,42.31
2022-07-27T19:31:38.869Z,42.07
2022-07-27T19:34:10.987Z,42.62
2022-07-27T19:36:40.731Z,43.05
2022-07-27T19:39:10.772Z,42.55
2022-07-27T19:41:40.907Z,43.10
2022-07-27T19:44:11.362Z,43.10
2022-07-27T19:46:41.363Z,43.79
2022-07-27T19:49:11.790Z,43.79
2022-07-27T19:51:41.982Z,43.33
2022-07-27T19:54:11.741Z,43.70
2022-07-27T19:56:41.518Z,43.96
2022-07-27T19:59:12.065Z,44.03
2022-07-27T20:01:41.826Z,44.77
2022-07-27T20:04:11.365Z,44.51
2022-07-27T20:06:41.205Z,44.92
2022-07-27T20:09:11.316Z,44.92
2022-07-27T20:11:41.282Z,45.53
2022-07-27T20:14:12.001Z,45.46
2022-07-27T20:16:41.834Z,45.57
2022-07-27T20:19:12.008Z,46.10
2022-07-27T20:21:43.657Z,46.27
2022-07-27T20:24:13.936Z,46.08
2022-07-27T20:26:48.783Z,46.09
2022-07-27T20:29:15.857Z,46.20
2022-07-27T20:31:46.161Z,46.90
2022-07-27T20:34:15.940Z,46.60
2022-07-27T20:36:45.701Z,47.30
2022-07-27T20:39:17.516Z,47.06
2022-07-27T20:41:47.753Z,46.71
2022-07-27T20:44:17.315Z,46.95
2022-07-27T20:46:47.144Z,46.85
2022-07-27T20:49:17.776Z,47.61
2022-07-27T20:51:48.013Z,47.21
2022-07-27T20:54:17.847Z,47.36
2022-07-27T20:56:49.589Z,48.38
2022-07-27T20:59:19.674Z,47.79
2022-07-27T21:01:49.589Z,47.61
2022-07-27T21:04:23.429Z,47.70
2022-07-27T21:06:54.126Z,48.64
2022-07-27T21:09:23.951Z,48.64
2022-07-27T21:11:53.783Z,48.76
2022-07-27T21:14:23.356Z,49.23
2022-07-27T21:16:53.241Z,48.78
2022-07-27T21:19:23.156Z,49.20
2022-07-27T21:21:52.653Z,49.02
2022-07-27T21:24:22.752Z,48.77
2022-07-27T21:26:53.434Z,48.74
2022-07-27T21:29:23.937Z,48.75
2022-07-27T21:31:53.854Z,49.43
2022-07-27T21:34:23.443Z,48.91
2022-07-27T21:36:53.288Z,49.81
2022-07-27T21:39:24.824Z,49.88
2022-07-27T21:41:58.537Z,49.80
2022-07-27T21:44:25.779Z,50.02
2022-07-27T21:46:55.255Z,50.82
2022-07-27T21:49:30.774Z,50.00
2022-07-27T21:51:56.563Z,50.25
2022-07-27T21:54:26.381Z,50.37
2022-07-27T21:56:56.188Z,50.46
2022-07-27T21:59:25.926Z,50.46
2022-07-27T22:01:55.762Z,50.18
2022-07-27T22:04:25.567Z,50.37
2022-07-27T22:06:55.061Z,50.31
2022-07-27T22:09:24.820Z,50.20
2022-07-27T22:11:54.626Z,50.29
2022-07-27T22:14:27.139Z,50.73
2022-07-27T22:16:57.072Z,50.35
2022-07-27T22:19:26.900Z,50.15
2022-07-27T22:21:56.943Z,50.88
2022-07-27T22:24:26.610Z,50.25
2022-07-27T22:26:56.441Z,50.78
2022-07-27T22:29:26.489Z,50.84
2022-07-27T22:31:56.339Z,50.94
2022-07-27T22:34:26.295Z,50.35
2022-07-27T22:36:56.062Z,50.30
2022-07-27T22:39:25.995Z,50.91
2022-07-27T22:41:55.480Z,50.57
2022-07-27T22:44:25.245Z,50.56
2022-07-27T22:46:55.016Z,50.55
2022-07-27T22:49:25.757Z,51.04
2022-07-27T22:51:55.227Z,51.11
2022-07-27T22:54:24.786Z,50.85
2022-07-27T22:56:54.993Z,51.15
2022-07-27T22:59:26.326Z,51.11
2022-07-27T23:01:56.482Z,50.87
2022-07-27T23:04:26.242Z,51.45
2022-07-27T23:06:56.115Z,51.40
2022-07-27T23:09:26.409Z,50.65
2022-07-27T23:11:56.268Z,50.48
2022-07-27T23:14:26.022Z,50.76
2022-07-27T23:16:55.852Z,51.42
2022-07-27T23:19:25.353Z,51.04
2022-07-27T23:22:01.110Z,51.41
2022-07-27T23:24:29.071Z,51.46
2022-07-27T23:26:57.945Z,50.88
2022-07-27T23:29:27.702Z,51.14
2022-07-27T23:31:57.561Z,51.17
2022-07-27T23:34:28.697Z,51.31
2022-07-27T23:36:58.166Z,51.22
2022-07-27T23:39:28.716Z,51.67
2022-07-27T23:41:58.475Z,51.17
2022-07-27T23:44:28.406Z,51.30
2022-07-27T23:46:58.406Z,51.30
2022-07-27T23:49:27.966Z,50.81
2022-07-27T23:51:59.358Z,50.56
2022-07-27T23:54:30.044Z,50.56
2022-07-27T23:56:59.826Z,51.22
2022-07-27T23:59:29.692Z,51.16
